Time;durP1;ratioP1;P1;durP2;ratioP2;P2;SDS_P1;SDS_P2;PMS_P1;PMS_P2;Temp;Humidity;BMP_temperature;BMP_pressure;BME280_temperature;BME280_humidity;BME280_pressure;Samples;Min_cycle;Max_cycle;Signal;HPM_P1;HPM_P2
2023/01/16 00:01:40;;;;;;;25.67;13.05;;;;;;;5.66;79.84;101314.47;5010783;28;20080;-84
2023/01/16 00:04:06;;;;;;;17.60;11.82;;;;;;;5.61;79.73;101293.19;5010396;28;20033;-84
2023/01/16 00:06:31;;;;;;;16.17;10.20;;;;;;;5.81;78.93;101303.94;5011420;28;20061;-85
2023/01/16 00:08:57;;;;;;;20.73;10.30;;;;;;;5.76;78.26;101298.03;4994317;28;20488;-85
2023/01/16 00:11:22;;;;;;;19.75;12.25;;;;;;;5.66;78.24;101283.66;5010624;28;20501;-84
2023/01/16 00:13:48;;;;;;;16.92;12.50;;;;;;;5.75;77.98;101304.03;4994278;28;20033;-85
2023/01/16 00:16:13;;;;;;;26.70;14.18;;;;;;;5.63;78.44;101296.56;5010304;28;20038;-84
2023/01/16 00:18:39;;;;;;;22.08;12.63;;;;;;;5.28;78.15;101254.38;4993939;28;20113;-85
2023/01/16 00:21:04;;;;;;;20.33;10.55;;;;;;;5.48;78.42;101298.50;5011401;28;20483;-84
2023/01/16 00:23:30;;;;;;;18.42;11.40;;;;;;;5.45;78.39;101298.56;4993725;28;20037;-84
2023/01/16 00:25:55;;;;;;;15.43;9.95;;;;;;;5.40;78.34;101296.94;5010402;28;20041;-85
2023/01/16 00:28:21;;;;;;;28.05;13.70;;;;;;;5.25;78.89;101284.38;4994017;28;20076;-84
2023/01/16 00:30:46;;;;;;;17.20;11.50;;;;;;;4.99;79.58;101264.28;5011430;28;20477;-84
2023/01/16 00:33:12;;;;;;;14.40;6.95;;;;;;;5.07;79.61;101265.84;4993744;28;20101;-84
2023/01/16 00:35:39;;;;;;;15.25;10.13;;;;;;;5.06;79.46;101265.88;5009884;28;20046;-86
2023/01/16 00:38:04;;;;;;;13.13;9.77;;;;;;;4.90;80.03;101273.78;4994233;28;20030;-87
2023/01/16 00:40:30;;;;;;;18.13;11.68;;;;;;;4.93;80.03;101283.19;4993633;28;20038;-84
2023/01/16 00:42:55;;;;;;;15.02;9.98;;;;;;;4.85;80.46;101279.88;5010093;28;20132;-84
2023/01/16 00:45:21;;;;;;;12.95;10.02;;;;;;;4.86;80.31;101282.41;5011557;28;20033;-84
2023/01/16 00:47:47;;;;;;;16.48;8.48;;;;;;;4.81;80.70;101288.47;4993492;28;20033;-84
2023/01/16 00:50:12;;;;;;;17.92;9.73;;;;;;;4.52;80.69;101237.63;4993430;28;20112;-84
2023/01/16 00:52:38;;;;;;;15.45;8.57;;;;;;;4.66;80.80;101261.34;5011470;28;20096;-87
2023/01/16 00:55:03;;;;;;;20.20;7.45;;;;;;;4.70;80.95;101255.28;5009731;28;20073;-85
2023/01/16 00:57:29;;;;;;;14.88;10.25;;;;;;;4.68;80.59;101254.47;5011106;28;20061;-84
2023/01/16 00:59:54;;;;;;;22.63;9.00;;;;;;;4.62;81.08;101241.75;4993564;28;20505;-84
2023/01/16 01:02:20;;;;;;;17.45;10.70;;;;;;;4.48;80.85;101224.00;5009814;28;20064;-84
2023/01/16 01:04:45;;;;;;;17.08;9.15;;;;;;;4.66;80.78;101252.81;5009381;28;20030;-84
2023/01/16 01:07:11;;;;;;;13.73;8.27;;;;;;;4.66;81.05;101238.28;5009797;28;20076;-85
2023/01/16 01:09:36;;;;;;;11.73;7.80;;;;;;;4.68;81.20;101243.38;5009394;28;20033;-84
2023/01/16 01:12:02;;;;;;;23.90;7.38;;;;;;;4.53;80.89;101222.25;4993351;28;20366;-84
2023/01/16 01:14:27;;;;;;;12.48;9.48;;;;;;;4.65;80.58;101244.28;5010076;28;20038;-84
2023/01/16 01:16:53;;;;;;;16.02;8.45;;;;;;;4.51;80.59;101228.25;5009926;28;20058;-84
2023/01/16 01:19:18;;;;;;;10.93;7.40;;;;;;;4.54;80.60;101233.34;4993299;28;20057;-85
2023/01/16 01:21:44;;;;;;;15.27;8.93;;;;;;;4.57;81.21;101233.28;4993304;28;20041;-85
2023/01/16 01:24:09;;;;;;;10.70;7.35;;;;;;;4.56;81.33;101237.56;5010516;28;20030;-84
2023/01/16 01:26:35;;;;;;;17.85;8.95;;;;;;;4.48;81.23;101229.13;5009618;28;20026;-84
2023/01/16 01:29:01;;;;;;;13.07;8.70;;;;;;;4.40;82.00;101214.75;4993269;28;20036;-84
2023/01/16 01:31:26;;;;;;;16.92;8.18;;;;;;;4.56;81.88;101229.03;5009314;28;20026;-84
2023/01/16 01:33:51;;;;;;;19.83;11.32;;;;;;;4.40;82.28;101201.94;4993459;28;20040;-84
2023/01/16 01:36:17;;;;;;;14.45;8.77;;;;;;;4.52;82.13;101214.56;5010456;28;20501;-84
2023/01/16 01:38:43;;;;;;;13.07;9.38;;;;;;;4.59;82.32;101231.53;5009242;28;20034;-85
2023/01/16 01:41:11;;;;;;;17.70;9.18;;;;;;;4.55;81.90;101199.16;5010903;28;20038;-85
2023/01/16 01:43:50;;;;;;;16.98;10.77;;;;;;;4.70;81.65;101221.97;4993053;28;20034;-84
2023/01/16 01:46:24;;;;;;;14.23;8.95;;;;;;;4.53;81.98;101182.97;5010375;28;20058;-85
2023/01/16 01:48:54;;;;;;;44.80;8.75;;;;;;;4.60;82.63;101199.91;5009552;28;20071;-85
2023/01/16 01:51:25;;;;;;;16.83;9.73;;;;;;;4.58;81.94;101178.59;4993188;28;20038;-85
2023/01/16 01:54:02;;;;;;;12.60;9.15;;;;;;;4.66;82.34;101188.75;4993564;28;20045;-85
2023/01/16 01:56:35;;;;;;;26.58;10.32;;;;;;;4.65;82.89;101169.13;4977614;28;20030;-84
2023/01/16 01:59:04;;;;;;;20.73;13.80;;;;;;;4.56;82.64;101131.66;5009084;28;20461;-86
2023/01/16 02:01:30;;;;;;;24.58;10.60;;;;;;;4.64;82.84;101142.66;4997150;28;20100;-85
2023/01/16 02:04:02;;;;;;;15.48;9.75;;;;;;;4.66;82.61;101153.72;5012582;28;20509;-84
2023/01/16 02:06:47;;;;;;;13.95;9.20;;;;;;;4.73;81.96;101152.75;4980828;28;20077;-84
2023/01/16 02:09:13;;;;;;;18.02;9.25;;;;;;;4.60;82.88;101138.41;4996687;28;20472;-84
2023/01/16 02:12:01;;;;;;;16.73;11.55;;;;;;;4.75;82.92;101161.25;4996934;28;20505;-85
2023/01/16 02:14:27;;;;;;;18.45;11.73;;;;;;;4.59;82.53;101134.16;5012530;28;20026;-84
2023/01/16 02:19:40;;;;;;;15.48;10.52;;;;;;;4.77;82.80;101150.97;5012701;28;20064;-86
2023/01/16 02:22:12;;;;;;;14.02;9.50;;;;;;;4.71;82.86;101133.97;5013402;28;20481;-84
2023/01/16 02:25:04;;;;;;;13.88;8.77;;;;;;;4.75;82.27;101120.25;5013799;28;20034;-84
2023/01/16 02:27:47;;;;;;;16.35;11.23;;;;;;;4.83;82.36;101117.56;5013994;28;20065;-84
2023/01/16 02:30:12;;;;;;;14.82;7.90;;;;;;;4.84;82.25;101114.97;5012497;28;20065;-85
2023/01/16 02:32:52;;;;;;;16.13;8.82;;;;;;;4.83;82.07;101113.28;5013667;28;20054;-87
2023/01/16 02:35:42;;;;;;;13.52;9.80;;;;;;;4.81;81.96;101117.56;5012448;28;20053;-86
2023/01/16 02:38:13;;;;;;;14.93;9.18;;;;;;;4.79;81.74;101121.03;5013349;28;20081;-84
2023/01/16 02:40:52;;;;;;;13.57;9.38;;;;;;;4.69;81.71;101107.50;5013468;28;20030;-86
2023/01/16 02:43:25;;;;;;;12.70;9.20;;;;;;;4.58;81.46;101086.34;5012201;28;20473;-84
2023/01/16 02:45:57;;;;;;;16.90;9.27;;;;;;;4.78;81.83;101112.50;4996362;28;20030;-85
2023/01/16 02:48:44;;;;;;;14.50;10.05;;;;;;;4.78;81.98;101115.06;4995904;28;20042;-85
2023/01/16 02:51:20;;;;;;;21.70;10.13;;;;;;;4.79;81.08;101097.94;5012581;28;20046;-85
2023/01/16 02:53:48;;;;;;;38.15;11.32;;;;;;;4.97;80.95;101109.59;4995527;28;20033;-84
2023/01/16 02:56:19;;;;;;;14.35;8.80;;;;;;;4.85;80.68;101101.25;5013323;28;20018;-84
2023/01/16 02:58:46;;;;;;;15.57;8.30;;;;;;;4.84;80.69;101089.31;4995815;28;20033;-85
2023/01/16 03:01:13;;;;;;;25.30;8.57;;;;;;;4.80;81.62;101103.03;4995682;28;20065;-84
2023/01/16 03:04:10;;;;;;;17.58;8.10;;;;;;;4.83;81.95;101113.28;5012007;28;20501;-85
2023/01/16 03:06:44;;;;;;;16.30;10.40;;;;;;;4.87;81.41;101109.75;5003783;28;20105;-85
2023/01/16 03:09:25;;;;;;;15.95;9.32;;;;;;;4.83;82.06;101108.16;4995668;28;20030;-85
2023/01/16 03:12:17;;;;;;;14.55;8.15;;;;;;;4.79;82.26;101091.09;5010423;28;20022;-86
2023/01/16 03:14:46;;;;;;;14.70;6.80;;;;;;;4.82;81.75;101092.78;4992503;28;20034;-85
2023/01/16 03:17:44;;;;;;;10.02;8.63;;;;;;;4.78;82.17;101089.41;5011972;28;20033;-85
2023/01/16 03:20:18;;;;;;;14.02;7.30;;;;;;;4.69;82.49;101058.81;4998270;28;20042;-86
2023/01/16 03:22:49;;;;;;;12.52;7.80;;;;;;;4.58;82.90;101050.47;5012573;28;20022;-84
2023/01/16 03:25:32;;;;;;;9.52;7.25;;;;;;;4.76;82.89;101082.63;4995441;28;20107;-84
2023/01/16 03:28:06;;;;;;;11.85;6.93;;;;;;;4.75;83.09;101083.50;4995892;28;20029;-84
2023/01/16 03:30:59;;;;;;;13.38;6.88;;;;;;;4.83;82.45;101081.66;4995441;28;20041;-85
2023/01/16 03:33:43;;;;;;;;;;;;;;;4.79;82.82;101091.09;5005261;28;20068;-84
2023/01/16 03:36:10;;;;;;;;;;;;;;;4.76;83.19;101072.38;5011510;28;19914;-84
2023/01/16 03:38:36;;;;;;;10.35;7.28;;;;;;;4.77;82.87;101066.38;5011157;28;19913;-84
2023/01/16 03:41:03;;;;;;;13.85;6.95;;;;;;;4.62;82.87;101041.84;5010879;28;20477;-84
2023/01/16 03:43:33;;;;;;;11.15;7.63;;;;;;;4.72;82.94;101061.34;4994952;28;20026;-84
2023/01/16 03:46:10;;;;;;;11.52;7.57;;;;;;;4.88;82.08;101065.31;4995170;28;20129;-85
2023/01/16 03:48:46;;;;;;;10.70;5.47;;;;;;;4.83;81.90;101051.75;4995880;28;20034;-86
2023/01/16 03:51:18;;;;;;;12.75;7.10;;;;;;;4.85;82.39;101067.94;4995160;28;20509;-85
2023/01/16 03:54:01;;;;;;;14.43;7.97;;;;;;;4.91;82.04;101069.53;4995467;28;20489;-84
2023/01/16 03:56:31;;;;;;;12.20;9.18;;;;;;;4.92;82.13;101060.13;4996061;28;20421;-86
2023/01/16 03:58:57;;;;;;;11.85;8.27;;;;;;;4.83;82.27;101036.38;4995002;28;20172;-86
2023/01/16 04:01:32;;;;;;;12.20;6.78;;;;;;;4.88;82.47;101039.66;4994665;28;20482;-86
2023/01/16 04:04:18;;;;;;;13.80;7.00;;;;;;;4.92;82.05;101050.72;5010449;28;20030;-87
2023/01/16 04:06:57;;;;;;;15.38;8.85;;;;;;;4.81;82.44;101024.44;5011707;28;20097;-85
2023/01/16 04:09:49;;;;;;;12.63;6.53;;;;;;;5.15;84.35;101011.81;4994907;28;20168;-84
2023/01/16 04:12:17;;;;;;;14.15;7.00;;;;;;;5.41;82.20;101018.97;5010721;28;20029;-84
2023/01/16 04:14:43;;;;;;;10.38;6.85;;;;;;;5.38;80.15;101032.69;4994863;28;20037;-84
2023/01/16 04:17:08;;;;;;;11.77;6.38;;;;;;;5.27;79.89;101031.22;4994242;28;20102;-84
2023/01/16 04:19:36;;;;;;;12.88;5.97;;;;;;;5.31;79.60;101030.28;4993800;28;20030;-84
2023/01/16 04:22:05;;;;;;;11.63;6.70;;;;;;;5.36;79.28;101039.56;5011094;28;20108;-85
2023/01/16 04:24:30;;;;;;;18.02;8.40;;;;;;;5.57;79.21;101037.44;4992158;28;20131;-81
2023/01/16 04:26:56;;;;;;;13.40;7.30;;;;;;;5.30;78.56;101001.22;5027712;28;20072;-83
2023/01/16 04:29:22;;;;;;;6.10;4.95;;;;;;;5.52;77.76;101046.97;5029943;28;20041;-82
2023/01/16 04:31:47;;;;;;;9.35;6.75;;;;;;;5.32;78.18;101029.44;5028831;28;20032;-83
2023/01/16 04:34:12;;;;;;;8.90;6.78;;;;;;;5.28;78.74;101040.59;5029306;28;20535;-83
2023/01/16 04:36:38;;;;;;;11.23;7.15;;;;;;;5.15;79.04;101027.19;5029547;28;20025;-83
2023/01/16 04:39:03;;;;;;;6.68;4.50;;;;;;;5.10;79.33;101014.44;5030061;28;20029;-82
2023/01/16 04:41:39;;;;;;;11.23;7.10;;;;;;;5.14;79.29;101010.97;5030639;28;20030;-83
2023/01/16 04:44:09;;;;;;;13.13;7.82;;;;;;;5.15;79.43;101022.06;5029925;28;20028;-82
2023/01/16 04:46:34;;;;;;;22.27;10.55;;;;;;;4.98;79.35;100995.91;5012525;28;20499;-89
2023/01/16 04:49:00;;;;;;;21.75;14.30;;;;;;;4.94;79.17;100979.75;5029373;28;20571;-82
2023/01/16 04:51:25;;;;;;;18.52;8.90;;;;;;;4.70;79.11;100965.69;5030502;28;20029;-82
2023/01/16 04:53:51;;;;;;;29.25;16.10;;;;;;;4.99;79.66;101023.22;5029457;28;20480;-82
2023/01/16 04:56:16;;;;;;;10.68;7.78;;;;;;;4.82;80.08;101019.28;5007068;28;20045;-82
2023/01/16 04:58:42;;;;;;;16.10;9.55;;;;;;;4.65;80.83;101010.22;5009629;28;20044;-83
2023/01/16 05:01:07;;;;;;;13.60;6.72;;;;;;;4.79;80.41;101024.47;5009447;28;20026;-82
2023/01/16 05:03:33;;;;;;;15.07;7.75;;;;;;;4.71;80.41;101016.06;4992709;28;20422;-81
2023/01/16 05:05:58;;;;;;;12.93;8.02;;;;;;;4.52;80.62;100978.84;5009444;28;20037;-82
2023/01/16 05:08:27;;;;;;;13.13;9.70;;;;;;;4.59;80.88;101000.91;5009570;28;20064;-81
2023/01/16 05:10:53;;;;;;;8.93;6.32;;;;;;;4.67;80.90;100999.06;5009237;28;20032;-82
2023/01/16 05:13:18;;;;;;;13.98;8.23;;;;;;;4.58;81.40;100996.66;4993620;28;20026;-81
2023/01/16 05:15:44;;;;;;;14.27;7.50;;;;;;;4.57;81.85;100992.41;5009350;28;20583;-90
2023/01/16 05:18:11;;;;;;;19.35;10.73;;;;;;;4.50;81.80;100978.03;5010024;28;20033;-89
2023/01/16 05:20:37;;;;;;;11.90;8.23;;;;;;;4.48;81.42;100977.22;5027208;28;20037;-85
2023/01/16 05:23:03;;;;;;;12.95;8.63;;;;;;;4.69;81.22;101001.59;5028049;28;20049;-91
2023/01/16 05:25:29;;;;;;;10.10;7.60;;;;;;;4.70;81.14;100983.63;5005094;28;20497;-92
2023/01/16 05:27:54;;;;;;;13.65;8.80;;;;;;;4.63;81.22;100997.44;4993043;28;20030;-90
2023/01/16 05:30:20;;;;;;;8.23;5.65;;;;;;;4.70;81.26;101004.13;4997365;28;20113;-90
2023/01/16 05:32:45;;;;;;;15.27;7.40;;;;;;;4.68;81.81;101000.75;5053403;22;20060;-94
2023/01/16 05:35:11;;;;;;;15.18;7.43;;;;;;;4.58;80.83;100986.41;5020004;28;20063;-80
2023/01/16 05:37:36;;;;;;;11.90;8.30;;;;;;;4.57;81.32;100992.41;5017955;28;20938;-86
2023/01/16 05:40:02;;;;;;;16.90;11.27;;;;;;;4.50;81.56;100985.72;5034563;28;20029;-88
2023/01/16 05:42:34;;;;;;;20.90;10.82;;;;;;;4.66;81.32;100992.25;5054744;28;20029;-94
2023/01/16 05:45:00;;;;;;;7.13;6.47;;;;;;;4.55;81.72;100963.44;5034350;28;20140;-85
2023/01/16 05:47:25;;;;;;;12.38;7.93;;;;;;;4.66;81.58;100992.25;5031055;28;20025;-87
2023/01/16 05:49:51;;;;;;;8.50;5.80;;;;;;;4.67;81.83;100995.66;5034733;28;20036;-92
2023/01/16 05:52:16;;;;;;;31.90;13.18;;;;;;;4.59;81.81;100970.16;5035493;28;20115;-87
2023/01/16 05:54:42;;;;;;;15.05;9.73;;;;;;;4.58;81.45;100968.47;5036794;28;20025;-91
2023/01/16 05:57:16;;;;;;;10.40;6.68;;;;;;;4.58;82.15;100968.47;5023200;28;20044;-94
2023/01/16 06:00:02;;;;;;;12.48;8.20;;;;;;;4.59;81.27;100988.09;5026913;28;20017;-94
2023/01/16 06:02:28;;;;;;;15.27;5.78;;;;;;;4.51;81.95;100979.72;5054327;28;20173;-91
2023/01/16 06:04:53;;;;;;;9.88;5.32;;;;;;;4.49;81.43;100981.47;5041307;28;20652;-90
2023/01/16 06:07:19;;;;;;;8.60;6.43;;;;;;;4.50;81.77;100990.84;5054434;28;20503;-92
2023/01/16 06:09:44;;;;;;;18.35;8.20;;;;;;;4.38;81.79;100971.41;5053464;28;20086;-83
2023/01/16 06:12:16;;;;;;;20.50;5.95;;;;;;;4.38;81.84;100973.13;5052571;28;20029;-91
2023/01/16 06:14:42;;;;;;;15.27;7.10;;;;;;;4.47;82.28;100980.66;5035761;28;20099;-88
2023/01/16 06:17:08;;;;;;;16.65;7.47;;;;;;;4.60;81.76;100982.09;5045832;28;20132;-87
2023/01/16 06:19:33;;;;;;;10.70;5.88;;;;;;;4.52;81.32;100974.59;5035029;28;20029;-84
2023/01/16 06:21:59;;;;;;;11.95;7.60;;;;;;;4.37;81.76;100958.63;5052032;28;20040;-88
2023/01/16 06:24:27;;;;;;;16.02;6.53;;;;;;;4.44;81.81;100962.78;5038433;28;20044;-93
2023/01/16 06:26:55;;;;;;;16.77;6.03;;;;;;;4.57;81.75;100974.47;5033915;28;20112;-94
2023/01/16 06:29:21;;;;;;;11.63;7.05;;;;;;;4.55;81.66;100963.44;5033656;28;20032;-93
2023/01/16 06:31:46;;;;;;;9.35;6.80;;;;;;;4.54;81.53;100970.28;5044567;28;20424;-86
2023/01/16 06:34:12;;;;;;;15.02;7.25;;;;;;;4.57;81.74;100966.78;5044965;28;20035;-87
2023/01/16 06:36:38;;;;;;;12.00;7.00;;;;;;;4.65;81.69;100990.56;5033799;28;20060;-91
2023/01/16 06:39:03;;;;;;;12.05;6.90;;;;;;;4.60;81.73;100976.97;5013191;28;20389;-90
2023/01/16 06:41:29;;;;;;;6.35;4.50;;;;;;;4.52;81.50;100960.91;5061387;28;20028;-88
2023/01/16 06:44:13;;;;;;;11.57;6.43;;;;;;;4.58;81.22;100968.47;5036763;28;20029;-94
2023/01/16 06:46:38;;;;;;;6.57;5.63;;;;;;;4.71;80.90;100971.66;5032322;28;20100;-94
2023/01/16 06:49:03;;;;;;;9.27;7.25;;;;;;;4.54;80.79;100931.84;5017228;28;20505;-87
2023/01/16 06:51:35;;;;;;;10.60;6.97;;;;;;;4.72;80.62;100961.41;5047153;28;20025;-94
2023/01/16 06:54:02;;;;;;;12.13;4.53;;;;;;;4.91;81.52;100972.09;5033153;28;20041;-86
2023/01/16 06:56:29;;;;;;;9.75;5.00;;;;;;;4.83;80.18;100963.75;5038972;28;20020;-84
2023/01/16 06:58:54;;;;;;;6.05;4.22;;;;;;;4.88;80.69;100970.44;5043662;28;20032;-87
2023/01/16 07:01:20;;;;;;;13.93;6.85;;;;;;;4.96;80.15;100975.44;5070940;28;20149;-86
2023/01/16 07:03:45;;;;;;;6.32;4.65;;;;;;;4.89;79.58;100964.44;5041249;28;20467;-91
2023/01/16 07:06:12;;;;;;;6.38;5.72;;;;;;;4.97;78.97;100963.44;5014380;28;20490;-88
2023/01/16 07:08:41;;;;;;;6.53;4.82;;;;;;;5.05;79.53;100961.59;5026959;28;20148;-93
2023/01/16 07:11:06;;;;;;;18.67;8.07;;;;;;;5.17;79.35;100963.88;5032301;28;20112;-93
2023/01/16 07:13:32;;;;;;;5.30;4.63;;;;;;;5.04;78.79;100941.94;5044690;28;20475;-87
2023/01/16 07:24:13;;;;;;;10.93;7.72;;;;;;;4.99;78.90;100964.25;5035052;28;20040;-86
2023/01/16 07:26:40;;;;;;;12.93;7.60;;;;;;;4.94;79.08;100981.47;5030697;28;20152;-83
2023/01/16 07:29:06;;;;;;;8.90;5.70;;;;;;;5.07;78.32;100986.31;5038247;28;20483;-89
2023/01/16 07:31:31;;;;;;;11.93;7.88;;;;;;;4.97;78.16;100978.84;5039472;28;20052;-90
2023/01/16 07:33:57;;;;;;;17.50;8.38;;;;;;;4.88;79.38;100962.75;5042375;28;20108;-90
2023/01/16 07:36:23;;;;;;;13.13;10.10;;;;;;;4.80;79.29;100948.41;5035085;28;20040;-94
2023/01/16 07:38:48;;;;;;;10.10;7.35;;;;;;;4.83;79.27;100932.97;5027435;28;20119;-89
2023/01/16 07:41:14;;;;;;;26.27;9.02;;;;;;;4.77;79.33;100907.47;5036091;28;20041;-91
2023/01/16 07:43:40;;;;;;;11.23;6.53;;;;;;;4.68;79.32;100882.88;5022851;28;20060;-83
2023/01/16 07:46:05;;;;;;;17.85;6.30;;;;;;;4.70;80.08;100916.97;5050190;28;20466;-89
2023/01/16 07:48:31;;;;;;;16.42;7.53;;;;;;;4.79;79.26;100914.25;5051510;28;20480;-87
2023/01/16 07:50:57;;;;;;;34.35;14.10;;;;;;;4.84;79.48;100925.25;5051359;28;20839;-95
2023/01/16 07:53:24;;;;;;;20.48;9.75;;;;;;;4.81;80.91;100927.00;5031887;28;20030;-87
2023/01/16 07:55:50;;;;;;;12.23;7.03;;;;;;;4.64;81.08;100918.84;5047847;28;20035;-94
2023/01/16 07:58:16;;;;;;;11.80;7.70;;;;;;;4.71;81.01;100918.66;5032002;28;20025;-88
2023/01/16 08:00:42;;;;;;;12.73;8.27;;;;;;;4.68;80.15;100931.56;5024243;28;20025;-92
2023/01/16 08:03:08;;;;;;;26.05;8.07;;;;;;;4.70;80.18;100921.25;5046545;28;20513;-87
2023/01/16 08:05:33;;;;;;;11.07;7.50;;;;;;;4.51;80.07;100900.28;5021013;28;20034;-89
2023/01/16 08:07:59;;;;;;;10.52;7.43;;;;;;;4.66;85.28;100917.09;5017814;28;20044;-85
2023/01/16 08:10:24;;;;;;;12.88;6.82;;;;;;;5.37;84.73;100922.41;5029455;28;20059;-89
2023/01/16 08:12:50;;;;;;;18.10;9.30;;;;;;;5.19;79.03;100918.50;5042122;28;20111;-85
2023/01/16 08:15:15;;;;;;;5.93;5.35;;;;;;;4.95;78.56;100901.97;5057062;28;20465;-93
2023/01/16 08:17:41;;;;;;;13.45;7.07;;;;;;;4.73;78.57;100893.88;5016445;28;20503;-87
2023/01/16 08:20:07;;;;;;;10.65;5.15;;;;;;;4.70;78.76;100904.16;5034544;28;20496;-94
2023/01/16 08:22:33;;;;;;;12.25;6.47;;;;;;;4.66;80.54;100900.00;5041146;28;20024;-91
2023/01/16 08:24:58;;;;;;;30.45;9.30;;;;;;;4.80;79.59;100889.44;5057642;28;20033;-87
2023/01/16 08:27:24;;;;;;;6.28;5.70;;;;;;;4.90;78.37;100914.84;5044304;28;20037;-90
2023/01/16 08:29:49;;;;;;;12.40;5.93;;;;;;;4.68;79.59;100903.38;5049613;28;20047;-90
2023/01/16 08:32:15;;;;;;;11.13;6.85;;;;;;;4.77;79.31;100898.06;5033601;28;20569;-86
2023/01/16 08:34:41;;;;;;;15.18;7.75;;;;;;;4.82;79.44;100898.81;5033440;28;20039;-90
2023/01/16 08:37:10;;;;;;;14.48;5.35;;;;;;;4.99;78.30;100902.72;5031506;28;20416;-82
2023/01/16 08:39:36;;;;;;;16.45;7.85;;;;;;;4.97;77.99;100894.22;5034053;28;20035;-87
2023/01/16 08:52:59;;;;;;;15.10;6.47;;;;;;;4.92;78.15;100883.22;5051021;28;20135;-90
2023/01/16 08:55:27;;;;;;;8.43;5.43;;;;;;;4.99;77.97;100877.09;5050647;28;20852;-94
2023/01/16 08:57:53;;;;;;;14.98;6.90;;;;;;;4.92;77.44;100893.47;5016396;28;20511;-94
2023/01/16 09:00:21;;;;;;;5.82;5.18;;;;;;;4.75;77.58;100869.06;5033726;28;20098;-88
2023/01/16 09:02:47;;;;;;;27.02;12.63;;;;;;;4.75;77.72;100884.44;5033660;28;20033;-93
2023/01/16 09:05:13;;;;;;;23.00;6.43;;;;;;;4.75;77.71;100888.72;5036329;28;20028;-91
2023/01/16 09:07:42;;;;;;;16.13;5.20;;;;;;;4.64;78.48;100876.13;5025603;28;20424;-93
2023/01/16 09:10:10;;;;;;;7.25;4.57;;;;;;;4.79;78.63;100875.78;5036870;28;20487;-83
2023/01/16 09:15:19;;;;;;;7.82;5.70;;;;;;;4.63;78.76;100864.19;5050435;28;20118;-90
2023/01/16 09:17:45;;;;;;;8.82;3.92;;;;;;;4.60;78.60;100853.97;5032823;28;20157;-90
2023/01/16 09:20:10;;;;;;;11.35;8.85;;;;;;;4.58;79.73;100855.75;5015901;28;20045;-94
2023/01/16 09:22:36;;;;;;;10.65;6.63;;;;;;;4.61;79.22;100840.28;5006092;28;20113;-91
2023/01/16 09:25:01;;;;;;;6.35;4.07;;;;;;;4.66;78.54;100847.91;5031948;28;20068;-92
2023/01/16 09:27:27;;;;;;;7.55;5.07;;;;;;;4.52;78.16;100825.09;5009306;28;20025;-87
2023/01/16 09:29:52;;;;;;;6.53;5.38;;;;;;;4.49;78.30;100836.28;5016179;28;20079;-82
2023/01/16 09:32:20;;;;;;;10.77;3.80;;;;;;;4.46;79.36;100820.13;5032057;28;20060;-94
2023/01/16 09:34:46;;;;;;;8.25;5.65;;;;;;;4.61;78.79;100810.38;5018311;28;20060;-85
2023/01/16 09:37:12;;;;;;;10.13;5.35;;;;;;;4.68;78.17;100808.53;5056514;28;20072;-93
2023/01/16 09:39:37;;;;;;;9.32;4.53;;;;;;;4.73;78.33;100793.91;5032326;28;20121;-88
2023/01/16 09:45:14;;;;;;;6.45;4.97;;;;;;;4.76;78.31;100798.97;5059428;28;20047;-92
2023/01/16 09:47:41;;;;;;;7.00;4.38;;;;;;;4.81;77.95;100791.16;5040953;28;20025;-89
2023/01/16 09:50:24;;;;;;;8.07;5.28;;;;;;;4.78;78.07;100779.28;5042618;28;20052;-92
2023/01/16 09:58:35;;;;;;;7.97;4.38;;;;;;;4.53;78.61;100758.50;5034363;28;20040;-89
2023/01/16 10:01:01;;;;;;;5.68;3.78;;;;;;;4.56;77.69;100745.59;5037417;28;20032;-87
2023/01/16 10:03:26;;;;;;;7.22;5.00;;;;;;;4.40;78.46;100738.28;5034271;28;20029;-91
2023/01/16 10:06:04;;;;;;;6.38;4.65;;;;;;;4.69;78.70;100765.81;5050462;28;20052;-91
2023/01/16 10:09:02;;;;;;;7.68;5.22;;;;;;;4.72;77.73;100752.94;5056672;28;20032;-93
2023/01/16 10:11:31;;;;;;;3.17;2.88;;;;;;;4.63;78.22;100746.31;5032323;28;20033;-91
2023/01/16 10:14:18;;;;;;;7.82;3.15;;;;;;;4.60;77.92;100731.00;5049779;28;20032;-91
2023/01/16 10:17:28;;;;;;;8.15;4.50;;;;;;;4.59;78.63;100734.44;5053728;28;20029;-87
2023/01/16 10:20:21;;;;;;;4.78;4.32;;;;;;;4.58;79.13;100732.75;5019594;28;20085;-92
2023/01/16 10:23:03;;;;;;;4.05;2.65;;;;;;;4.56;79.34;100729.38;5055815;28;20033;-89
2023/01/16 10:25:49;;;;;;;10.88;4.78;;;;;;;4.61;78.41;100742.91;5026032;28;20032;-85
2023/01/16 10:28:25;;;;;;;7.05;4.15;;;;;;;4.61;78.72;100736.06;5054864;28;20025;-88
2023/01/16 10:30:58;;;;;;;13.82;5.55;;;;;;;4.42;78.52;100703.22;5052922;28;20432;-93
2023/01/16 10:33:43;;;;;;;12.13;5.55;;;;;;;4.48;78.74;100690.28;5049746;28;20073;-89
2023/01/16 10:36:09;;;;;;;7.18;5.47;;;;;;;4.39;78.92;100705.84;5034283;28;20025;-82
2023/01/16 10:38:43;;;;;;;10.10;5.10;;;;;;;4.46;79.58;100686.91;5042377;28;20040;-84
2023/01/16 10:49:25;;;;;;;6.63;4.95;;;;;;;4.42;78.54;100680.16;5035373;28;20105;-89
2023/01/16 10:49:27;;;;;;;11.30;5.22;;;;;;;4.36;79.08;100659.81;5035211;28;20040;-88
2023/01/16 10:52:00;;;;;;;5.47;3.90;;;;;;;4.39;79.70;100660.59;5034565;28;20140;-92
2023/01/16 10:54:25;;;;;;;;;;;;;;;4.41;79.64;100670.78;5032831;28;20026;-87
2023/01/16 10:56:50;;;;;;;5.03;4.57;;;;;;;4.08;80.18;100645.06;5048786;28;20299;-86
2023/01/16 10:59:16;;;;;;;8.30;5.82;;;;;;;4.25;80.52;100672.88;5033286;28;20033;-88
2023/01/16 11:01:41;;;;;;;9.43;5.00;;;;;;;4.19;80.20;100667.88;5034672;28;20459;-85
2023/01/16 11:04:10;;;;;;;5.65;4.13;;;;;;;4.25;79.51;100678.00;5053429;28;20062;-91
2023/01/16 11:06:37;;;;;;;5.32;4.32;;;;;;;4.25;79.27;100668.59;5039841;28;20587;-85
2023/01/16 11:09:03;;;;;;;5.40;4.38;;;;;;;4.23;79.54;100659.28;5023105;28;20083;-87
2023/01/16 11:20:32;;;;;;;4.82;4.43;;;;;;;4.05;80.70;100649.44;5050866;28;20078;-89
2023/01/16 11:22:58;;;;;;;;;;;;;;;4.17;81.32;100662.78;5031231;28;20059;-91
2023/01/16 11:25:25;;;;;;;6.78;4.82;;;;;;;4.13;81.13;100658.63;5044503;28;19940;-95
2023/01/16 11:27:50;;;;;;;11.57;6.18;;;;;;;3.99;81.21;100632.47;5018548;28;20033;-92
2023/01/16 11:30:21;;;;;;;7.28;5.57;;;;;;;4.12;81.32;100635.59;5038831;28;20376;-91
2023/01/16 11:32:48;;;;;;;14.55;6.22;;;;;;;4.05;81.54;100619.56;5043909;28;20064;-85
2023/01/16 11:35:15;;;;;;;6.20;4.45;;;;;;;4.24;81.41;100625.94;5038674;28;20488;-85
2023/01/16 11:37:42;;;;;;;13.77;6.55;;;;;;;4.13;81.44;100607.44;5035407;28;20435;-89
2023/01/16 11:40:17;;;;;;;11.90;5.63;;;;;;;4.21;81.73;100612.34;5050597;28;20021;-92
2023/01/16 11:46:03;;;;;;;10.13;6.00;;;;;;;4.32;81.25;100587.31;5036643;28;20040;-87
2023/01/16 11:48:44;;;;;;;8.63;4.63;;;;;;;4.28;80.80;100581.44;5030295;28;20029;-87
2023/01/16 11:51:18;;;;;;;9.55;6.15;;;;;;;4.17;82.04;100578.31;5026202;28;20488;-86
2023/01/16 11:53:45;;;;;;;12.38;5.38;;;;;;;4.11;81.20;100568.19;5039117;28;20109;-91
2023/01/16 11:56:20;;;;;;;9.75;5.40;;;;;;;4.09;82.25;100579.34;5049483;28;20040;-84
2023/01/16 11:58:51;;;;;;;14.95;8.02;;;;;;;4.24;82.25;100589.25;5049664;28;20035;-90
2023/01/16 12:01:25;;;;;;;9.35;6.63;;;;;;;4.09;81.94;100579.34;5051249;28;20021;-95
2023/01/16 12:04:07;;;;;;;13.00;8.50;;;;;;;4.18;82.32;100574.84;5050816;28;20119;-88
2023/01/16 12:07:02;;;;;;;11.43;5.53;;;;;;;4.24;82.63;100563.66;5049328;28;20025;-91
2023/01/16 12:09:36;;;;;;;10.55;6.57;;;;;;;4.26;82.94;100582.38;5042803;28;20027;-95
2023/01/16 12:15:25;;;;;;;10.07;5.65;;;;;;;4.14;82.42;100568.13;5043061;28;20611;-92
2023/01/16 12:18:03;;;;;;;11.00;7.47;;;;;;;4.12;82.10;100567.31;5033438;28;20463;-88
2023/01/16 12:20:34;;;;;;;15.30;4.75;;;;;;;4.09;83.16;100553.75;5051013;28;20056;-91
2023/01/16 12:23:14;;;;;;;12.52;5.97;;;;;;;4.23;82.89;100555.13;5029817;28;20117;-87
2023/01/16 12:26:01;;;;;;;13.32;5.82;;;;;;;4.26;82.41;100541.41;5042059;28;20065;-90
2023/01/16 12:28:36;;;;;;;7.35;4.72;;;;;;;4.41;81.98;100561.50;5034216;28;20025;-85
2023/01/16 12:31:34;;;;;;;7.97;5.70;;;;;;;4.12;81.80;100526.34;5049731;28;20115;-82
2023/01/16 12:34:24;;;;;;;11.75;6.88;;;;;;;4.41;80.82;100550.41;5028625;28;20547;-90